createdAt,value
2019-02-04T00:02:23.137Z,99.9
2019-02-04T00:07:25.668Z,99.9
2019-02-04T00:12:28.051Z,99.9
2019-02-04T00:17:30.531Z,99.9
2019-02-04T00:22:32.972Z,99.9
2019-02-04T00:27:35.468Z,99.9
2019-02-04T00:32:37.903Z,99.9
2019-02-04T00:37:40.658Z,99.9
2019-02-04T00:42:42.820Z,99.9
2019-02-04T00:47:45.276Z,99.9
2019-02-04T00:52:47.742Z,99.9
2019-02-04T00:57:50.204Z,99.9
2019-02-04T01:02:52.687Z,99.9
2019-02-04T01:07:55.126Z,99.9
2019-02-04T01:12:57.649Z,99.9
2019-02-04T01:18:00.058Z,99.9
2019-02-04T01:23:02.516Z,99.9
2019-02-04T01:28:04.976Z,99.9
2019-02-04T01:33:07.446Z,99.9
2019-02-04T01:38:09.887Z,99.9
2019-02-04T01:43:12.353Z,99.9
2019-02-04T01:48:14.844Z,99.9
2019-02-04T01:53:17.333Z,99.9
2019-02-04T01:58:19.745Z,99.9
2019-02-04T02:03:22.207Z,99.9
2019-02-04T02:08:24.993Z,99.9
2019-02-04T02:13:27.124Z,99.9
2019-02-04T02:18:29.592Z,99.9
2019-02-04T02:23:32.113Z,99.9
2019-02-04T02:28:34.533Z,99.9
2019-02-04T02:33:37.003Z,99.9
2019-02-04T02:38:39.445Z,99.9
2019-02-04T02:43:41.930Z,99.9
2019-02-04T02:48:44.374Z,99.9
2019-02-04T02:53:46.850Z,99.9
2019-02-04T02:58:49.304Z,99.9
2019-02-04T03:03:51.789Z,99.9
2019-02-04T03:08:54.243Z,99.9
2019-02-04T03:13:56.683Z,99.9
2019-02-04T03:18:59.170Z,99.9
2019-02-04T03:24:01.627Z,99.9
2019-02-04T03:29:04.073Z,99.9
2019-02-04T03:34:06.532Z,99.9
2019-02-04T03:39:09.014Z,99.9
2019-02-04T03:44:11.477Z,99.9
2019-02-04T03:49:13.948Z,99.9
2019-02-04T03:54:16.383Z,99.9
2019-02-04T03:59:18.850Z,99.9
2019-02-04T04:04:21.299Z,99.9
2019-02-04T04:09:23.805Z,99.9
2019-02-04T04:14:26.235Z,99.9
2019-02-04T04:19:28.848Z,99.9
2019-02-04T04:24:31.204Z,99.9
2019-02-04T04:29:33.640Z,99.9
2019-02-04T04:34:36.075Z,99.9
2019-02-04T04:39:38.568Z,99.9
2019-02-04T04:44:41.002Z,99.9
2019-02-04T04:49:43.500Z,99.9
2019-02-04T04:54:46.000Z,99.9
2019-02-04T04:59:48.390Z,99.9
2019-02-04T05:04:50.853Z,99.9
2019-02-04T05:09:53.333Z,99.9
2019-02-04T05:14:55.812Z,99.9
2019-02-04T05:19:58.257Z,99.9
2019-02-04T05:25:00.746Z,99.9
2019-02-04T05:30:03.254Z,99.9
2019-02-04T05:35:05.618Z,99.9
2019-02-04T05:40:08.308Z,99.9
2019-02-04T05:45:10.589Z,99.9
2019-02-04T05:50:13.047Z,99.9
2019-02-04T05:55:15.571Z,99.9
2019-02-04T06:00:17.944Z,99.9
2019-02-04T06:05:20.401Z,99.9
2019-02-04T06:10:22.903Z,99.9
2019-02-04T06:15:25.324Z,99.9
2019-02-04T06:20:27.779Z,99.9
2019-02-04T06:25:30.282Z,99.9
2019-02-04T06:30:32.732Z,99.9
2019-02-04T06:35:35.162Z,99.9
2019-02-04T06:40:37.621Z,99.9
2019-02-04T06:45:40.072Z,99.9
2019-02-04T06:50:42.557Z,99.9
2019-02-04T06:55:45.019Z,99.9
2019-02-04T07:00:47.564Z,99.9
2019-02-04T07:05:49.914Z,99.9
2019-02-04T07:10:52.416Z,99.9
2019-02-04T07:15:54.913Z,99.9
2019-02-04T07:20:57.312Z,99.9
2019-02-04T07:25:59.767Z,99.9
2019-02-04T07:31:02.299Z,99.9
2019-02-04T07:36:04.697Z,99.9
2019-02-04T07:41:07.186Z,99.9
2019-02-04T07:46:09.644Z,99.9
2019-02-04T07:51:12.094Z,99.9
2019-02-04T07:56:14.560Z,99.9
2019-02-04T08:01:17.106Z,99.9
2019-02-04T08:06:19.499Z,99.9
2019-02-04T08:11:22.063Z,99.9
2019-02-04T08:16:24.420Z,99.9
2019-02-04T08:21:26.886Z,99.9
2019-02-04T08:26:30.086Z,99.9
2019-02-04T08:31:31.813Z,99.9
2019-02-04T08:36:43.230Z,99.9
2019-02-04T08:41:36.751Z,99.9
2019-02-04T08:46:39.279Z,99.9
2019-02-04T08:51:41.663Z,1
2019-02-04T08:56:44.168Z,1
2019-02-04T09:01:46.553Z,1
2019-02-04T09:06:49.005Z,1
2019-02-04T09:11:51.536Z,1
2019-02-04T09:16:54.038Z,1
2019-02-04T09:21:56.406Z,1
2019-02-04T09:26:58.858Z,1
2019-02-04T09:32:06.378Z,1
2019-02-04T09:37:03.779Z,1
2019-02-04T09:42:06.218Z,1
2019-02-04T09:47:08.693Z,1
2019-02-04T09:52:11.145Z,1
2019-02-04T09:57:13.589Z,1
2019-02-04T10:02:16.062Z,1
2019-02-04T10:07:18.507Z,1
2019-02-04T10:12:20.967Z,1
2019-02-04T10:17:23.445Z,1
2019-02-04T10:22:25.917Z,1
2019-02-04T10:27:28.398Z,1
2019-02-04T10:32:30.833Z,1
2019-02-04T10:37:33.290Z,1
2019-02-04T10:42:35.729Z,1
2019-02-04T10:47:38.318Z,1
2019-02-04T10:52:40.764Z,1
2019-02-04T10:57:43.120Z,1
2019-02-04T11:02:45.644Z,1
2019-02-04T11:07:48.067Z,1
2019-02-04T11:12:50.525Z,1
2019-02-04T11:17:52.997Z,1
2019-02-04T11:22:55.385Z,1
2019-02-04T11:27:57.885Z,1
2019-02-04T11:33:00.338Z,1
2019-02-04T11:38:02.767Z,1
2019-02-04T11:43:05.269Z,1
2019-02-04T11:48:07.817Z,1
2019-02-04T11:53:10.148Z,1
2019-02-04T11:58:12.648Z,1
2019-02-04T12:03:15.046Z,1
2019-02-04T12:08:17.528Z,1
2019-02-04T12:13:19.987Z,1
2019-02-04T12:18:22.418Z,1
2019-02-04T12:23:24.905Z,1
2019-02-04T12:28:27.342Z,1
2019-02-04T12:33:29.921Z,1
2019-02-04T12:38:32.407Z,1
2019-02-04T12:43:34.758Z,1
2019-02-04T12:48:37.230Z,1
2019-02-04T12:53:39.636Z,1
2019-02-04T12:58:42.114Z,1
2019-02-04T13:03:44.547Z,1
2019-02-04T13:08:47.012Z,1
2019-02-04T13:13:49.491Z,1
2019-02-04T13:18:51.949Z,1
2019-02-04T13:23:54.393Z,1
2019-02-04T13:28:56.843Z,1
2019-02-04T13:33:59.338Z,1
2019-02-04T13:39:01.836Z,1
2019-02-04T13:44:04.210Z,1
2019-02-04T13:49:06.664Z,1
2019-02-04T13:54:09.166Z,1
2019-02-04T13:59:11.592Z,1
2019-02-04T14:04:14.109Z,1
2019-02-04T14:09:16.559Z,1
2019-02-04T14:14:19.028Z,1
2019-02-04T14:19:21.510Z,1
2019-02-04T14:24:23.889Z,1
2019-02-04T14:29:26.341Z,1
2019-02-04T14:34:28.811Z,1
2019-02-04T14:39:31.292Z,1
2019-02-04T14:44:33.738Z,1
2019-02-04T14:49:36.160Z,1
2019-02-04T14:54:38.813Z,1
2019-02-04T14:59:41.347Z,1
2019-02-04T15:04:43.530Z,1
2019-02-04T15:09:45.989Z,1
2019-02-04T15:14:48.448Z,1
2019-02-04T15:19:50.914Z,1
2019-02-04T15:24:53.389Z,1
2019-02-04T15:29:55.951Z,1
2019-02-04T15:35:04.322Z,1
2019-02-04T15:40:00.842Z,1
2019-02-04T15:45:03.238Z,1
2019-02-04T15:50:05.698Z,1
2019-02-04T15:55:08.163Z,1
2019-02-04T16:00:10.641Z,1
2019-02-04T16:05:13.375Z,1
2019-02-04T16:10:15.522Z,4.7
2019-02-04T16:15:18.189Z,23
2019-02-04T16:20:20.454Z,12
2019-02-04T16:25:22.905Z,0
2019-02-04T16:30:25.417Z,0
2019-02-04T16:35:27.885Z,17.1
2019-02-04T16:40:30.345Z,21.1
2019-02-04T16:45:32.773Z,30.2
2019-02-04T16:50:35.307Z,50.6
2019-02-04T16:55:37.667Z,75
2019-02-04T17:00:40.174Z,63.1
2019-02-04T17:05:42.589Z,62.2
2019-02-04T17:10:45.090Z,36.5
2019-02-04T17:15:47.553Z,64.6
2019-02-04T17:20:50.109Z,79.5
2019-02-04T17:25:52.399Z,80
2019-02-04T17:30:54.876Z,84.4
2019-02-04T17:35:57.340Z,98.1
2019-02-04T17:40:59.893Z,99.9
2019-02-04T17:46:02.331Z,99.9
2019-02-04T17:51:04.707Z,99.9
2019-02-04T17:56:07.399Z,99.9
2019-02-04T18:01:09.701Z,98.7
2019-02-04T18:06:12.258Z,99.9
2019-02-04T18:11:14.532Z,99.9
2019-02-04T18:16:17.032Z,99.9
2019-02-04T18:21:19.434Z,99.9
2019-02-04T18:26:21.928Z,99.9
2019-02-04T18:31:24.369Z,99.9
2019-02-04T18:36:26.840Z,99.9
2019-02-04T18:41:29.295Z,99.9
2019-02-04T18:46:31.711Z,99.9
2019-02-04T18:51:34.181Z,99.9
2019-02-04T18:56:36.671Z,99.9
2019-02-04T19:01:39.080Z,99.9
2019-02-04T19:06:47.530Z,99.9
2019-02-04T19:11:44.027Z,99.9
2019-02-04T19:16:46.447Z,99.9
2019-02-04T19:21:49.037Z,99.9
2019-02-04T19:26:53.950Z,99.9
2019-02-04T19:31:53.832Z,99.9
2019-02-04T19:36:56.308Z,99.9
2019-02-04T19:41:58.756Z,99.9
2019-02-04T19:47:01.352Z,99.9
2019-02-04T19:52:03.642Z,99.9
2019-02-04T19:57:06.398Z,99.9
2019-02-04T20:02:08.604Z,99.9
2019-02-04T20:07:11.036Z,99.9
2019-02-04T20:12:13.469Z,99.9
2019-02-04T20:17:15.946Z,99.9
2019-02-04T20:22:18.382Z,99.9
2019-02-04T20:27:20.844Z,99.9
2019-02-04T20:32:23.302Z,99.9
2019-02-04T20:37:25.773Z,99.9
2019-02-04T20:42:28.287Z,99.9
2019-02-04T20:47:30.731Z,99.9
2019-02-04T20:52:33.121Z,99.9
2019-02-04T20:57:35.650Z,99.9
2019-02-04T21:02:38.109Z,99.9
2019-02-04T21:07:40.522Z,99.9
2019-02-04T21:12:42.960Z,99.9
2019-02-04T21:17:45.715Z,99.9
2019-02-04T21:22:47.908Z,99.9
2019-02-04T21:27:50.327Z,99.9
2019-02-04T21:32:52.938Z,99.9
2019-02-04T21:37:55.246Z,99.9
2019-02-04T21:42:57.702Z,99.9
2019-02-04T21:48:00.150Z,99.9
2019-02-04T21:53:02.645Z,99.9
2019-02-04T21:58:05.072Z,99.9
2019-02-04T22:03:07.527Z,99.9
2019-02-04T22:08:10.116Z,99.9
2019-02-04T22:13:12.430Z,99.9
2019-02-04T22:18:14.926Z,99.9
2019-02-04T22:23:17.381Z,99.9
2019-02-04T22:28:19.832Z,99.9
2019-02-04T22:33:22.266Z,99.9
2019-02-04T22:38:24.728Z,99.9
2019-02-04T22:43:27.179Z,99.9
2019-02-04T22:48:29.641Z,99.9
2019-02-04T22:53:32.087Z,99.9
2019-02-04T22:58:34.601Z,99.9
2019-02-04T23:03:37.015Z,99.9
2019-02-04T23:08:39.458Z,99.9
2019-02-04T23:13:41.918Z,99.9
2019-02-04T23:18:44.388Z,99.9
2019-02-04T23:23:46.876Z,99.9
2019-02-04T23:28:49.273Z,99.9
2019-02-04T23:33:51.773Z,99.9
2019-02-04T23:38:54.252Z,99.9
2019-02-04T23:43:56.660Z,99.9
2019-02-04T23:48:59.132Z,99.9
2019-02-04T23:54:01.579Z,99.9
2019-02-04T23:59:04.049Z,99.9
